Time;durP1;ratioP1;P1;durP2;ratioP2;P2;SDS_P1;SDS_P2;PMS_P1;PMS_P2;Temp;Humidity;BMP_temperature;BMP_pressure;BME280_temperature;BME280_humidity;BME280_pressure;Samples;Min_cycle;Max_cycle;Signal;HPM_P1;HPM_P2
2022/05/14 00:01:20;;;;;;;8.38;2.03;;;;;;;;;;5063400;28;20188;-65
2022/05/14 00:03:47;;;;;;;6.20;2.00;;;;;;;;;;5067244;28;20253;-64
2022/05/14 00:06:15;;;;;;;5.10;1.88;;;;;;;;;;5066108;28;20203;-65
2022/05/14 00:08:41;;;;;;;9.50;2.60;;;;;;;;;;5067275;28;20224;-64
2022/05/14 00:13:52;;;;;;;6.65;2.10;;;;;;;;;;5062765;28;20195;-65
2022/05/14 00:16:19;;;;;;;7.72;1.92;;;;;;;;;;5062165;28;20169;-65
2022/05/14 00:18:45;;;;;;;7.28;1.98;;;;;;;;;;5061751;28;20230;-64
2022/05/14 00:21:11;;;;;;;5.90;1.98;;;;;;;;;;5058897;28;20187;-65
2022/05/14 00:23:37;;;;;;;8.20;1.95;;;;;;;;;;5063984;28;20177;-65
2022/05/14 00:26:03;;;;;;;6.68;1.75;;;;;;;;;;5060001;28;20212;-64
2022/05/14 00:28:28;;;;;;;5.88;1.98;;;;;;;;;;5065304;28;20187;-64
2022/05/14 00:30:54;;;;;;;6.70;2.05;;;;;;;;;;5062483;28;20200;-66
2022/05/14 00:33:20;;;;;;;6.60;1.95;;;;;;;;;;5054994;28;20177;-65
2022/05/14 00:35:45;;;;;;;5.32;1.90;;;;;;;;;;5064247;28;20203;-65
2022/05/14 00:38:11;;;;;;;6.97;1.98;;;;;;;;;;5056926;28;20181;-64
2022/05/14 00:40:43;;;;;;;9.93;1.90;;;;;;;;;;5063404;28;20538;-64
2022/05/14 00:43:09;;;;;;;6.55;2.22;;;;;;;;;;5067197;28;20201;-64
2022/05/14 00:45:38;;;;;;;6.35;2.13;;;;;;;;;;5064094;28;20237;-65
2022/05/14 00:48:04;;;;;;;11.55;2.40;;;;;;;;;;5057960;28;20272;-65
2022/05/14 00:50:46;;;;;;;8.95;2.00;;;;;;;;;;5065663;28;20314;-65
2022/05/14 00:53:31;;;;;;;4.28;1.60;;;;;;;;;;5064654;28;20599;-65
2022/05/14 00:56:01;;;;;;;6.82;2.17;;;;;;;;;;5063956;28;20188;-64
2022/05/14 00:58:41;;;;;;;9.70;2.33;;;;;;;;;;5065671;28;20179;-64
2022/05/14 01:01:07;;;;;;;8.23;1.95;;;;;;;;;;5060398;28;20189;-64
2022/05/14 01:03:32;;;;;;;7.90;2.30;;;;;;;;;;5062782;28;20185;-64
2022/05/14 01:06:00;;;;;;;5.78;2.08;;;;;;;;;;5057300;28;20216;-64
2022/05/14 01:08:28;;;;;;;6.00;2.00;;;;;;;;;;5062658;28;20212;-64
2022/05/14 01:10:53;;;;;;;8.30;2.30;;;;;;;;;;5064733;28;20212;-64
2022/05/14 01:13:18;;;;;;;9.93;2.13;;;;;;;;;;5064252;28;20699;-64
2022/05/14 01:15:52;;;;;;;7.15;1.90;;;;;;;;;;5063871;28;20180;-64
2022/05/14 01:18:22;;;;;;;8.43;1.88;;;;;;;;;;5067974;28;20775;-64
2022/05/14 01:20:53;;;;;;;4.95;1.80;;;;;;;;;;5066039;28;20181;-65
2022/05/14 01:26:27;;;;;;;10.13;2.28;;;;;;;;;;5063095;28;20298;-65
2022/05/14 01:26:29;;;;;;;11.75;1.88;;;;;;;;;;5063308;28;20208;-65
2022/05/14 01:29:01;;;;;;;6.72;2.60;;;;;;;;;;5067262;28;20206;-65
2022/05/14 01:31:28;;;;;;;7.50;2.50;;;;;;;;;;5063468;28;20192;-65
2022/05/14 01:33:55;;;;;;;9.35;2.05;;;;;;;;;;5063474;28;20181;-64
2022/05/14 01:36:20;;;;;;;8.48;2.65;;;;;;;;;;5063555;28;20184;-65
2022/05/14 01:38:46;;;;;;;7.22;2.05;;;;;;;;;;5066127;28;20571;-65
2022/05/14 01:41:11;;;;;;;7.85;2.00;;;;;;;;;;5064800;28;20184;-64
2022/05/14 01:43:37;;;;;;;6.15;1.85;;;;;;;;;;5062916;28;20173;-64
2022/05/14 01:46:02;;;;;;;9.23;2.03;;;;;;;;;;5067297;28;20199;-64
2022/05/14 01:48:28;;;;;;;9.95;2.30;;;;;;;;;;5062017;28;20200;-65
2022/05/14 01:50:53;;;;;;;7.43;1.92;;;;;;;;;;5065799;28;20172;-64
2022/05/14 01:53:19;;;;;;;10.95;2.30;;;;;;;;;;5063306;28;20191;-64
2022/05/14 01:55:44;;;;;;;10.30;2.35;;;;;;;;;;5070299;28;20541;-64
2022/05/14 02:00:54;;;;;;;8.35;2.03;;;;;;;;;;5068290;28;20196;-64
2022/05/14 02:03:20;;;;;;;11.23;2.42;;;;;;;;;;5067705;28;20189;-64
2022/05/14 02:05:45;;;;;;;8.63;2.42;;;;;;;;;;5072050;28;20525;-65
2022/05/14 02:08:11;;;;;;;9.80;2.67;;;;;;;;;;5066783;28;20512;-65
2022/05/14 02:10:37;;;;;;;10.73;2.65;;;;;;;;;;5065904;28;20648;-64
2022/05/14 02:13:02;;;;;;;6.97;2.30;;;;;;;;;;5054898;28;20225;-64
2022/05/14 02:15:27;;;;;;;6.93;2.42;;;;;;;;;;5068831;28;20772;-65
2022/05/14 02:17:52;;;;;;;13.43;2.90;;;;;;;;;;5069129;28;20195;-65
2022/05/14 02:20:19;;;;;;;10.10;2.65;;;;;;;;;;5069569;28;20181;-66
2022/05/14 02:22:44;;;;;;;8.18;3.10;;;;;;;;;;5066392;28;20191;-65
2022/05/14 02:25:10;;;;;;;11.00;2.72;;;;;;;;;;5071173;28;20500;-65
2022/05/14 02:27:36;;;;;;;9.02;2.83;;;;;;;;;;5065291;28;20264;-65
2022/05/14 02:30:03;;;;;;;11.88;2.30;;;;;;;;;;5063259;28;20181;-66
2022/05/14 02:32:29;;;;;;;10.15;2.58;;;;;;;;;;5084269;28;20233;-65
2022/05/14 02:34:57;;;;;;;11.48;2.70;;;;;;;;;;5067167;28;20197;-65
2022/05/14 02:37:25;;;;;;;10.10;2.55;;;;;;;;;;5062709;28;20181;-65
2022/05/14 02:39:52;;;;;;;11.25;2.92;;;;;;;;;;5064802;28;20172;-65
2022/05/14 02:42:18;;;;;;;10.48;2.63;;;;;;;;;;5066757;28;20192;-65
2022/05/14 02:44:43;;;;;;;10.60;3.03;;;;;;;;;;5066814;28;20213;-65
2022/05/14 02:47:10;;;;;;;13.30;3.25;;;;;;;;;;5067368;28;20187;-65
2022/05/14 02:49:35;;;;;;;10.95;3.08;;;;;;;;;;5069726;28;20922;-65
2022/05/14 02:52:01;;;;;;;11.25;3.10;;;;;;;;;;5061898;28;20173;-65
2022/05/14 02:54:26;;;;;;;10.02;3.78;;;;;;;;;;5060806;28;20185;-65
2022/05/14 02:56:52;;;;;;;10.13;3.10;;;;;;;;;;5061484;28;20192;-65
2022/05/14 02:59:18;;;;;;;15.38;3.50;;;;;;;;;;5061742;28;20185;-65
2022/05/14 03:01:49;;;;;;;11.80;3.22;;;;;;;;;;5068188;28;20561;-65
2022/05/14 03:04:22;;;;;;;15.23;3.53;;;;;;;;;;5071030;28;20188;-65
2022/05/14 03:06:49;;;;;;;13.27;3.55;;;;;;;;;;5057341;28;20193;-65
2022/05/14 03:09:14;;;;;;;8.77;3.20;;;;;;;;;;5081911;28;20232;-65
2022/05/14 03:11:40;;;;;;;12.88;3.08;;;;;;;;;;5068698;28;20241;-65
2022/05/14 03:14:05;;;;;;;14.05;3.28;;;;;;;;;;5062538;28;20258;-65
2022/05/14 03:16:31;;;;;;;9.95;3.47;;;;;;;;;;5065257;28;20183;-65
2022/05/14 03:18:56;;;;;;;15.30;3.72;;;;;;;;;;5069767;28;20185;-65
2022/05/14 03:21:21;;;;;;;14.38;3.42;;;;;;;;;;5069687;28;20175;-65
2022/05/14 03:23:47;;;;;;;9.02;3.53;;;;;;;;;;5060721;28;20269;-65
2022/05/14 03:26:12;;;;;;;12.57;3.42;;;;;;;;;;5064830;28;20299;-65
2022/05/14 03:28:37;;;;;;;14.13;3.88;;;;;;;;;;5065201;28;20664;-65
2022/05/14 03:31:03;;;;;;;11.43;2.97;;;;;;;;;;5064472;28;20201;-65
2022/05/14 03:33:30;;;;;;;13.27;3.90;;;;;;;;;;5056637;28;20271;-65
2022/05/14 03:35:55;;;;;;;14.82;4.80;;;;;;;;;;5059656;28;20182;-65
2022/05/14 03:38:21;;;;;;;17.48;4.07;;;;;;;;;;5067165;28;20173;-65
2022/05/14 03:40:47;;;;;;;12.77;4.10;;;;;;;;;;5057574;28;20268;-65
2022/05/14 03:43:12;;;;;;;12.25;4.18;;;;;;;;;;5065128;28;20179;-65
2022/05/14 03:45:37;;;;;;;15.63;3.95;;;;;;;;;;5068487;28;20192;-65
2022/05/14 03:48:03;;;;;;;12.25;4.00;;;;;;;;;;5067071;28;20189;-65
2022/05/14 03:50:28;;;;;;;17.95;3.85;;;;;;;;;;5069408;28;20180;-65
2022/05/14 03:52:54;;;;;;;13.13;5.00;;;;;;;;;;5064939;28;20207;-65
2022/05/14 03:55:19;;;;;;;13.93;4.10;;;;;;;;;;5067749;28;20650;-65
2022/05/14 03:57:44;;;;;;;10.00;3.70;;;;;;;;;;5064192;28;20185;-65
2022/05/14 04:00:11;;;;;;;10.57;4.07;;;;;;;;;;5068988;28;20200;-65
2022/05/14 04:02:37;;;;;;;12.57;3.92;;;;;;;;;;5066375;28;20188;-65
2022/05/14 04:05:02;;;;;;;13.90;5.03;;;;;;;;;;5065591;28;20238;-65
2022/05/14 04:07:30;;;;;;;14.02;4.57;;;;;;;;;;5065834;28;20185;-65
2022/05/14 04:09:55;;;;;;;13.23;4.18;;;;;;;;;;5060527;28;20263;-65
2022/05/14 04:12:21;;;;;;;14.88;4.05;;;;;;;;;;5065645;28;20249;-65
2022/05/14 04:14:46;;;;;;;17.73;4.60;;;;;;;;;;5068783;28;20195;-65
2022/05/14 04:17:11;;;;;;;16.52;5.05;;;;;;;;;;5069092;28;20202;-65
2022/05/14 04:19:36;;;;;;;17.52;4.75;;;;;;;;;;5065759;28;20180;-65
2022/05/14 04:22:02;;;;;;;12.63;4.70;;;;;;;;;;5066867;28;20203;-65
2022/05/14 04:24:28;;;;;;;11.60;4.65;;;;;;;;;;5062963;28;20544;-65
2022/05/14 04:26:54;;;;;;;15.55;5.13;;;;;;;;;;5067892;28;20513;-65
2022/05/14 04:29:19;;;;;;;14.18;4.47;;;;;;;;;;5063458;28;20212;-65
2022/05/14 04:31:44;;;;;;;15.68;5.22;;;;;;;;;;5056846;28;20201;-64
2022/05/14 04:34:10;;;;;;;17.38;5.28;;;;;;;;;;5061583;28;20267;-64
2022/05/14 04:36:35;;;;;;;15.52;5.60;;;;;;;;;;5067230;28;20238;-64
2022/05/14 04:39:01;;;;;;;16.20;4.65;;;;;;;;;;5069005;28;20259;-64
2022/05/14 04:41:30;;;;;;;11.73;5.20;;;;;;;;;;5066673;28;20188;-64
2022/05/14 04:43:56;;;;;;;10.38;4.63;;;;;;;;;;5067047;28;20655;-68
2022/05/14 04:46:22;;;;;;;17.60;5.07;;;;;;;;;;5068572;28;21156;-64
2022/05/14 04:48:47;;;;;;;14.38;4.70;;;;;;;;;;5061222;28;20605;-64
2022/05/14 04:51:12;;;;;;;15.15;4.70;;;;;;;;;;5056903;28;20224;-64
2022/05/14 04:53:38;;;;;;;10.18;5.00;;;;;;;;;;5059082;28;20217;-64
2022/05/14 04:56:03;;;;;;;10.13;4.43;;;;;;;;;;5060302;28;20540;-65
2022/05/14 04:58:29;;;;;;;14.60;4.40;;;;;;;;;;5056217;28;20216;-65
2022/05/14 05:00:55;;;;;;;11.95;5.45;;;;;;;;;;5059932;28;20637;-65
2022/05/14 05:03:20;;;;;;;16.75;5.93;;;;;;;;;;5076474;28;20192;-65
2022/05/14 05:05:58;;;;;;;12.40;5.20;;;;;;;;;;5067793;28;20200;-65
2022/05/14 05:08:26;;;;;;;20.45;5.20;;;;;;;;;;5061233;28;20181;-65
2022/05/14 05:10:52;;;;;;;16.90;5.32;;;;;;;;;;5057816;28;20731;-65
2022/05/14 05:13:22;;;;;;;14.75;5.57;;;;;;;;;;5060336;28;20176;-65
2022/05/14 05:15:47;;;;;;;15.95;5.55;;;;;;;;;;5067314;28;20218;-65
2022/05/14 05:18:13;;;;;;;14.77;5.50;;;;;;;;;;5063701;28;20188;-65
2022/05/14 05:20:42;;;;;;;16.75;5.75;;;;;;;;;;5064617;28;20192;-65
2022/05/14 05:23:12;;;;;;;18.33;5.63;;;;;;;;;;5058583;28;20181;-64
2022/05/14 05:25:37;;;;;;;14.02;6.25;;;;;;;;;;5068285;28;20786;-65
2022/05/14 05:28:02;;;;;;;12.32;5.97;;;;;;;;;;5065367;28;20184;-65
2022/05/14 05:30:28;;;;;;;21.25;6.15;;;;;;;;;;5062956;28;20376;-65
2022/05/14 05:32:53;;;;;;;13.85;5.78;;;;;;;;;;5063498;28;20225;-65
2022/05/14 05:35:20;;;;;;;12.93;6.40;;;;;;;;;;5064420;28;20508;-65
2022/05/14 05:37:46;;;;;;;15.55;6.00;;;;;;;;;;5066221;28;20716;-65
2022/05/14 05:40:11;;;;;;;17.15;6.00;;;;;;;;;;5062691;28;20263;-66
2022/05/14 05:42:36;;;;;;;16.00;6.65;;;;;;;;;;5055096;28;20311;-66
2022/05/14 05:45:03;;;;;;;14.18;6.70;;;;;;;;;;5053813;28;20695;-65
2022/05/14 05:47:28;;;;;;;16.02;7.03;;;;;;;;;;5063708;28;20189;-66
2022/05/14 05:49:53;;;;;;;17.10;6.07;;;;;;;;;;5059574;28;20184;-65
2022/05/14 05:52:19;;;;;;;17.90;6.90;;;;;;;;;;5060859;28;20212;-65
2022/05/14 05:57:30;;;;;;;15.82;6.45;;;;;;;;;;5066192;28;20651;-66
2022/05/14 05:59:55;;;;;;;20.60;5.95;;;;;;;;;;5061610;28;20184;-65
2022/05/14 06:02:21;;;;;;;19.55;6.47;;;;;;;;;;5064690;28;20184;-66
2022/05/14 06:04:46;;;;;;;16.38;6.68;;;;;;;;;;5058213;28;20211;-65
2022/05/14 06:07:12;;;;;;;15.38;6.38;;;;;;;;;;5065298;28;20617;-65
2022/05/14 06:09:38;;;;;;;20.10;6.85;;;;;;;;;;5061120;28;20278;-65
2022/05/14 06:12:04;;;;;;;13.13;6.38;;;;;;;;;;5064395;28;20181;-66
2022/05/14 06:14:29;;;;;;;18.65;6.70;;;;;;;;;;5066162;28;20234;-65
2022/05/14 06:16:54;;;;;;;19.08;7.00;;;;;;;;;;5065655;28;20188;-66
2022/05/14 06:19:20;;;;;;;15.30;6.40;;;;;;;;;;5063892;28;20177;-65
2022/05/14 06:21:46;;;;;;;20.08;7.25;;;;;;;;;;5064226;28;20209;-65
2022/05/14 06:24:12;;;;;;;18.00;7.72;;;;;;;;;;5065836;28;20181;-66
2022/05/14 06:26:37;;;;;;;21.90;7.50;;;;;;;;;;5065937;28;20749;-65
2022/05/14 06:29:05;;;;;;;23.40;7.18;;;;;;;;;;5065387;28;20255;-65
2022/05/14 06:31:30;;;;;;;21.85;7.22;;;;;;;;;;5056528;28;20537;-66
2022/05/14 06:33:56;;;;;;;20.25;7.97;;;;;;;;;;5066670;28;20306;-65
2022/05/14 06:36:21;;;;;;;20.77;7.72;;;;;;;;;;5065547;28;20177;-65
2022/05/14 06:38:47;;;;;;;20.00;7.78;;;;;;;;;;5066125;28;20192;-65
2022/05/14 06:41:13;;;;;;;24.67;8.50;;;;;;;;;;5065407;28;20626;-65
2022/05/14 06:43:39;;;;;;;31.00;9.00;;;;;;;;;;5067344;28;20196;-65
2022/05/14 06:46:05;;;;;;;26.35;7.47;;;;;;;;;;5065103;28;20220;-66
2022/05/14 06:48:31;;;;;;;24.77;7.25;;;;;;;;;;5068691;28;20227;-65
2022/05/14 06:51:00;;;;;;;21.52;7.75;;;;;;;;;;5063333;28;20648;-66
2022/05/14 06:53:27;;;;;;;25.33;8.15;;;;;;;;;;5063538;28;20197;-66
2022/05/14 06:55:55;;;;;;;23.52;8.65;;;;;;;;;;5060379;28;20242;-66
2022/05/14 06:58:26;;;;;;;23.83;8.13;;;;;;;;;;5061177;28;20181;-64
2022/05/14 07:00:52;;;;;;;16.33;7.55;;;;;;;;;;5060075;28;20624;-64
2022/05/14 07:08:46;;;;;;;22.58;7.75;;;;;;;;;;5065739;28;20216;-64
2022/05/14 07:11:12;;;;;;;27.10;7.82;;;;;;;;;;5060879;28;20198;-64
2022/05/14 07:13:38;;;;;;;19.30;8.00;;;;;;;;;;5067362;28;20264;-64
2022/05/14 07:16:04;;;;;;;16.50;7.90;;;;;;;;;;5065107;28;20177;-64
2022/05/14 07:18:29;;;;;;;27.60;8.98;;;;;;;;;;5065285;28;20515;-64
2022/05/14 07:20:55;;;;;;;24.40;7.72;;;;;;;;;;5064380;28;20180;-64
2022/05/14 07:23:20;;;;;;;23.67;8.77;;;;;;;;;;5066492;28;20181;-64
2022/05/14 07:25:46;;;;;;;24.67;7.78;;;;;;;;;;5078626;28;20243;-64
2022/05/14 07:28:11;;;;;;;23.98;7.47;;;;;;;;;;5067200;28;20656;-64
2022/05/14 07:30:37;;;;;;;20.73;7.95;;;;;;;;;;5067619;28;20538;-65
2022/05/14 07:33:02;;;;;;;20.58;7.18;;;;;;;;;;5064361;28;20185;-64
2022/05/14 07:35:29;;;;;;;22.75;7.40;;;;;;;;;;5068073;28;20173;-65
2022/05/14 07:37:58;;;;;;;22.40;8.02;;;;;;;;;;5062179;28;20197;-64
2022/05/14 07:40:27;;;;;;;14.68;6.45;;;;;;;;;;5068162;28;20580;-64
2022/05/14 07:43:03;;;;;;;21.80;6.97;;;;;;;;;;5066375;28;20177;-65
2022/05/14 07:45:35;;;;;;;24.92;7.18;;;;;;;;;;5066917;28;20204;-64
2022/05/14 07:48:08;;;;;;;23.95;6.88;;;;;;;;;;5065902;28;20188;-64
2022/05/14 07:50:35;;;;;;;20.20;5.90;;;;;;;;;;5061070;28;20185;-64
2022/05/14 07:53:01;;;;;;;16.83;6.57;;;;;;;;;;5066121;28;20190;-65
2022/05/14 07:55:26;;;;;;;25.83;6.57;;;;;;;;;;5062683;28;20698;-64
2022/05/14 07:57:52;;;;;;;22.17;6.32;;;;;;;;;;5068606;28;20185;-64
2022/05/14 08:00:17;;;;;;;21.83;7.28;;;;;;;;;;5065827;28;20187;-65
2022/05/14 08:02:45;;;;;;;20.48;6.20;;;;;;;;;;5063907;28;20313;-65
2022/05/14 08:05:12;;;;;;;21.23;6.65;;;;;;;;;;5068852;28;20208;-65
2022/05/14 08:07:37;;;;;;;27.50;5.85;;;;;;;;;;5063557;28;20341;-65
2022/05/14 08:10:05;;;;;;;17.83;5.38;;;;;;;;;;5063226;28;20682;-65
2022/05/14 08:12:38;;;;;;;29.52;6.70;;;;;;;;;;5061438;28;20181;-65
2022/05/14 08:15:04;;;;;;;21.13;5.65;;;;;;;;;;5063496;28;20164;-65
2022/05/14 08:17:30;;;;;;;23.75;6.18;;;;;;;;;;5064782;28;20250;-66
2022/05/14 08:19:55;;;;;;;18.73;6.47;;;;;;;;;;5066139;28;20180;-65
2022/05/14 08:25:07;;;;;;;18.52;5.57;;;;;;;;;;5061020;28;20243;-65
2022/05/14 08:27:44;;;;;;;23.08;5.30;;;;;;;;;;5065091;28;20312;-65
2022/05/14 08:30:17;;;;;;;22.30;5.00;;;;;;;;;;5066448;28;20496;-65
2022/05/14 08:32:43;;;;;;;20.80;4.60;;;;;;;;;;5061770;28;20225;-65
2022/05/14 08:35:09;;;;;;;22.55;5.28;;;;;;;;;;5059778;28;20254;-68
2022/05/14 08:37:35;;;;;;;15.82;4.45;;;;;;;;;;5067558;28;20185;-65
2022/05/14 08:40:18;;;;;;;20.58;4.93;;;;;;;;;;5061748;28;20556;-66
2022/05/14 08:42:44;;;;;;;19.33;3.75;;;;;;;;;;5057568;28;20212;-67
2022/05/14 08:45:11;;;;;;;18.88;3.83;;;;;;;;;;5059328;28;20201;-65
2022/05/14 08:47:41;;;;;;;22.30;5.13;;;;;;;;;;5059703;28;20213;-65
2022/05/14 08:50:08;;;;;;;14.93;4.13;;;;;;;;;;5056943;28;20206;-65
2022/05/14 08:52:35;;;;;;;20.95;4.70;;;;;;;;;;5066294;28;20223;-65
2022/05/14 08:55:07;;;;;;;14.07;3.78;;;;;;;;;;5067765;28;21890;-65
2022/05/14 08:57:46;;;;;;;18.83;3.95;;;;;;;;;;5067546;28;20177;-65
2022/05/14 09:00:13;;;;;;;14.30;3.70;;;;;;;;;;5066953;28;20702;-65
2022/05/14 09:02:50;;;;;;;21.45;4.43;;;;;;;;;;5065258;28;20200;-65
2022/05/14 09:05:23;;;;;;;16.67;3.95;;;;;;;;;;5064519;28;20196;-65
2022/05/14 09:07:50;;;;;;;17.65;4.43;;;;;;;;;;5065930;28;20659;-67
2022/05/14 09:10:40;;;;;;;16.52;4.90;;;;;;;;;;5064475;28;20401;-65
2022/05/14 09:13:08;;;;;;;19.88;4.50;;;;;;;;;;5051680;28;20231;-65
2022/05/14 09:15:40;;;;;;;15.43;4.45;;;;;;;;;;5066984;28;20170;-65
2022/05/14 09:18:11;;;;;;;13.48;3.85;;;;;;;;;;5066613;28;20188;-65
2022/05/14 09:20:51;;;;;;;19.08;4.10;;;;;;;;;;5066985;28;20184;-65
2022/05/14 09:23:29;;;;;;;17.63;4.00;;;;;;;;;;5058862;28;20173;-65
2022/05/14 09:25:55;;;;;;;21.35;4.78;;;;;;;;;;5065006;28;20276;-65
2022/05/14 09:28:41;;;;;;;15.27;4.28;;;;;;;;;;5060933;28;20178;-65
2022/05/14 09:31:07;;;;;;;15.05;4.03;;;;;;;;;;5061944;28;20205;-66
2022/05/14 09:33:38;;;;;;;15.77;3.70;;;;;;;;;;5066952;28;20177;-66
2022/05/14 09:36:04;;;;;;;16.77;3.90;;;;;;;;;;5057442;28;20267;-66
2022/05/14 09:38:31;;;;;;;19.30;3.95;;;;;;;;;;5064079;28;20173;-65
2022/05/14 09:41:12;;;;;;;16.20;3.80;;;;;;;;;;5063763;28;20664;-65
2022/05/14 09:43:39;;;;;;;14.98;3.50;;;;;;;;;;5058790;28;20189;-66
2022/05/14 09:46:07;;;;;;;21.95;4.22;;;;;;;;;;5059297;28;20205;-66
2022/05/14 09:48:47;;;;;;;13.10;3.95;;;;;;;;;;5066312;28;20184;-66
2022/05/14 09:51:14;;;;;;;16.85;3.85;;;;;;;;;;5067529;28;20267;-66
2022/05/14 09:53:43;;;;;;;20.02;4.40;;;;;;;;;;5064117;28;20200;-66
2022/05/14 09:56:46;;;;;;;16.38;3.80;;;;;;;;;;5064572;28;20176;-66
2022/05/14 09:59:32;;;;;;;18.75;3.92;;;;;;;;;;5065301;28;20176;-66
2022/05/14 10:02:14;;;;;;;15.63;3.92;;;;;;;;;;5063197;28;20193;-66
2022/05/14 10:05:07;;;;;;;13.35;3.42;;;;;;;;;;5066077;28;20276;-66
2022/05/14 10:07:47;;;;;;;17.67;3.42;;;;;;;;;;5062915;28;20184;-66
2022/05/14 10:10:42;;;;;;;18.10;3.55;;;;;;;;;;5070734;28;20258;-66
2022/05/14 10:13:18;;;;;;;21.58;3.53;;;;;;;;;;5069736;28;20189;-68
2022/05/14 10:16:03;;;;;;;13.52;3.38;;;;;;;;;;5065505;28;20260;-67
2022/05/14 10:19:23;;;;;;;13.85;3.53;;;;;;;;;;5064007;28;20258;-66
2022/05/14 10:22:03;;;;;;;13.38;3.78;;;;;;;;;;5007871;28;20277;-66
2022/05/14 10:27:52;;;;;;;13.90;3.70;;;;;;;;;;5062608;28;20207;-67
2022/05/14 10:30:25;;;;;;;12.40;3.80;;;;;;;;;;5070607;28;20242;-67
2022/05/14 10:33:01;;;;;;;17.67;3.53;;;;;;;;;;5063899;28;20250;-66
2022/05/14 10:35:45;;;;;;;16.80;4.20;;;;;;;;;;5065130;28;20208;-66
2022/05/14 10:38:20;;;;;;;19.98;3.58;;;;;;;;;;5069274;28;20201;-67
2022/05/14 10:40:53;;;;;;;16.83;3.75;;;;;;;;;;5069001;28;20173;-66
2022/05/14 10:43:33;;;;;;;12.20;3.47;;;;;;;;;;5070026;28;20189;-66
2022/05/14 10:46:04;;;;;;;16.75;3.33;;;;;;;;;;5063082;28;20200;-67
2022/05/14 10:48:42;;;;;;;14.25;3.03;;;;;;;;;;5065773;28;20250;-67
2022/05/14 10:51:09;;;;;;;15.27;3.38;;;;;;;;;;5068246;28;20185;-66
2022/05/14 10:53:39;;;;;;;12.52;3.22;;;;;;;;;;5068939;28;20208;-66
2022/05/14 10:56:15;;;;;;;13.68;3.30;;;;;;;;;;5069346;28;20173;-65
2022/05/14 10:58:51;;;;;;;15.32;3.42;;;;;;;;;;5061909;28;20595;-65
2022/05/14 11:01:52;;;;;;;14.07;3.22;;;;;;;;;;5070251;28;20233;-65
2022/05/14 11:04:26;;;;;;;10.85;3.55;;;;;;;;;;5046102;28;20265;-65
2022/05/14 11:06:55;;;;;;;11.45;3.25;;;;;;;;;;5066439;28;20494;-66
2022/05/14 11:09:35;;;;;;;12.23;2.92;;;;;;;;;;5067403;28;20229;-65
2022/05/14 11:12:04;;;;;;;13.20;3.45;;;;;;;;;;5067268;28;20185;-66
2022/05/14 11:14:45;;;;;;;17.77;3.67;;;;;;;;;;5067486;28;20180;-67
2022/05/14 11:17:17;;;;;;;17.05;3.55;;;;;;;;;;5065483;28;20263;-69
2022/05/14 11:19:42;;;;;;;11.85;3.15;;;;;;;;;;5066644;28;20215;-66
2022/05/14 11:22:22;;;;;;;13.60;3.33;;;;;;;;;;5068696;28;20648;-66
2022/05/14 11:24:48;;;;;;;16.20;3.38;;;;;;;;;;5066471;28;20215;-68
2022/05/14 11:27:24;;;;;;;18.67;3.70;;;;;;;;;;5067801;28;20212;-66
2022/05/14 11:29:55;;;;;;;10.70;3.15;;;;;;;;;;5067618;28;20188;-67
2022/05/14 11:32:22;;;;;;;13.27;3.05;;;;;;;;;;5066132;28;20254;-69
2022/05/14 11:34:57;;;;;;;12.98;3.55;;;;;;;;;;5065242;28;20184;-66
2022/05/14 11:37:38;;;;;;;14.85;3.28;;;;;;;;;;5065082;28;20237;-68
2022/05/14 11:40:28;;;;;;;12.20;3.40;;;;;;;;;;5067596;28;20259;-65
2022/05/14 11:43:05;;;;;;;12.43;3.55;;;;;;;;;;5066603;28;20309;-67
2022/05/14 11:45:31;;;;;;;13.20;3.20;;;;;;;;;;5067749;28;20551;-66
2022/05/14 11:48:05;;;;;;;15.63;3.55;;;;;;;;;;5065220;28;20566;-65
2022/05/14 11:50:58;;;;;;;16.13;3.63;;;;;;;;;;5065242;28;20169;-65
2022/05/14 11:53:36;;;;;;;12.63;3.55;;;;;;;;;;5067954;28;20484;-65
2022/05/14 11:56:10;;;;;;;17.55;3.10;;;;;;;;;;5066076;28;20173;-66
2022/05/14 11:58:45;;;;;;;17.95;3.60;;;;;;;;;;5068588;28;20246;-65
2022/05/14 12:01:17;;;;;;;14.10;3.10;;;;;;;;;;5068167;28;20647;-66
2022/05/14 12:03:45;;;;;;;11.80;3.28;;;;;;;;;;5067639;28;20620;-65
2022/05/14 12:06:37;;;;;;;14.15;3.58;;;;;;;;;;5067262;28;20323;-66
2022/05/14 12:09:27;;;;;;;14.38;3.47;;;;;;;;;;5065872;28;20228;-65
2022/05/14 12:12:04;;;;;;;11.15;3.10;;;;;;;;;;5068482;28;20659;-65
2022/05/14 12:14:32;;;;;;;12.02;3.10;;;;;;;;;;5059940;28;20184;-66
2022/05/14 12:17:01;;;;;;;17.05;4.15;;;;;;;;;;5064764;28;20380;-67
2022/05/14 12:19:37;;;;;;;14.48;3.33;;;;;;;;;;5067096;28;20196;-66
2022/05/14 12:22:15;;;;;;;14.15;3.25;;;;;;;;;;5067045;28;20416;-66
2022/05/14 12:24:56;;;;;;;13.65;3.28;;;;;;;;;;5063158;28;20263;-65
2022/05/14 12:27:21;;;;;;;12.70;3.20;;;;;;;;;;5067484;28;20658;-65
2022/05/14 12:30:13;;;;;;;11.45;2.83;;;;;;;;;;5058631;28;20177;-66
2022/05/14 12:35:30;;;;;;;11.52;2.97;;;;;;;;;;5066669;28;20234;-66
2022/05/14 12:37:58;;;;;;;14.65;3.03;;;;;;;;;;5052032;28;20189;-66
2022/05/14 12:40:30;;;;;;;12.25;3.22;;;;;;;;;;5066555;28;20216;-66
2022/05/14 12:42:57;;;;;;;13.05;3.10;;;;;;;;;;5061782;28;20559;-66
2022/05/14 12:45:35;;;;;;;18.95;3.65;;;;;;;;;;5067478;28;20231;-66
2022/05/14 12:48:02;;;;;;;13.18;2.83;;;;;;;;;;5066613;28;20195;-66
2022/05/14 12:50:32;;;;;;;11.73;2.70;;;;;;;;;;5069495;28;20181;-66
2022/05/14 12:53:05;;;;;;;13.77;3.00;;;;;;;;;;5068461;28;20189;-66
2022/05/14 12:55:34;;;;;;;14.40;4.05;;;;;;;;;;5055800;28;20173;-65
2022/05/14 12:58:04;;;;;;;11.02;3.28;;;;;;;;;;5066885;28;20195;-66
2022/05/14 13:00:33;;;;;;;14.38;2.83;;;;;;;;;;5067366;28;20185;-66
2022/05/14 13:03:18;;;;;;;13.77;3.17;;;;;;;;;;5056664;28;20200;-66
2022/05/14 13:05:57;;;;;;;10.50;2.65;;;;;;;;;;5056827;28;20201;-66
2022/05/14 13:08:24;;;;;;;13.75;3.33;;;;;;;;;;5063231;28;20633;-67
2022/05/14 13:10:56;;;;;;;14.88;3.35;;;;;;;;;;5059229;28;20234;-66
2022/05/14 13:13:44;;;;;;;11.50;3.38;;;;;;;;;;5061750;28;20204;-66
2022/05/14 13:16:22;;;;;;;11.18;3.33;;;;;;;;;;5064011;28;20217;-66
2022/05/14 13:18:54;;;;;;;13.73;3.15;;;;;;;;;;5064487;28;20643;-69
2022/05/14 13:21:23;;;;;;;16.23;3.20;;;;;;;;;;5067939;28;20313;-66
2022/05/14 13:24:03;;;;;;;10.43;2.95;;;;;;;;;;5061005;28;20184;-66
2022/05/14 13:26:46;;;;;;;17.65;3.00;;;;;;;;;;5057776;28;20203;-66
2022/05/14 13:29:30;;;;;;;15.55;3.50;;;;;;;;;;5066377;28;20542;-65
2022/05/14 13:32:08;;;;;;;18.67;3.97;;;;;;;;;;5066858;28;20208;-67
2022/05/14 13:37:25;;;;;;;18.70;4.05;;;;;;;;;;5065295;28;20564;-66
2022/05/14 13:39:54;;;;;;;12.68;3.30;;;;;;;;;;5066437;28;20173;-66
2022/05/14 13:42:26;;;;;;;12.98;3.42;;;;;;;;;;5062817;28;20183;-65
2022/05/14 13:45:05;;;;;;;13.35;2.97;;;;;;;;;;5061464;28;20577;-65
2022/05/14 13:47:31;;;;;;;14.85;2.92;;;;;;;;;;5063724;28;20305;-68
2022/05/14 13:50:00;;;;;;;15.48;3.63;;;;;;;;;;5062994;28;20528;-66
2022/05/14 13:52:31;;;;;;;10.43;2.50;;;;;;;;;;5062426;28;20186;-67
2022/05/14 13:55:26;;;;;;;11.68;2.78;;;;;;;;;;5059734;28;20177;-67
2022/05/14 13:58:01;;;;;;;13.70;2.97;;;;;;;;;;5061508;28;20199;-65
2022/05/14 14:00:33;;;;;;;14.85;3.60;;;;;;;;;;5064063;28;20602;-66
2022/05/14 14:03:04;;;;;;;18.58;3.45;;;;;;;;;;5059432;28;20216;-68
2022/05/14 14:05:33;;;;;;;9.00;2.70;;;;;;;;;;5063888;28;20209;-66
2022/05/14 14:07:59;;;;;;;14.18;3.75;;;;;;;;;;5061888;28;20308;-66
2022/05/14 14:10:34;;;;;;;16.00;3.20;;;;;;;;;;5063132;28;20655;-66
2022/05/14 14:13:05;;;;;;;13.68;3.88;;;;;;;;;;5059168;28;20215;-66
2022/05/14 14:15:34;;;;;;;16.48;3.45;;;;;;;;;;5061403;28;20886;-66
2022/05/14 14:17:59;;;;;;;12.45;2.92;;;;;;;;;;5061382;28;20189;-66
2022/05/14 14:20:28;;;;;;;15.77;3.33;;;;;;;;;;5061579;28;20231;-67
2022/05/14 14:22:54;;;;;;;15.88;3.50;;;;;;;;;;5062315;28;20185;-66
2022/05/14 14:25:19;;;;;;;12.60;3.15;;;;;;;;;;5062123;28;20246;-66
2022/05/14 14:27:45;;;;;;;10.20;3.45;;;;;;;;;;5059335;28;20216;-66
2022/05/14 14:30:13;;;;;;;17.33;3.50;;;;;;;;;;5056704;28;20169;-69
2022/05/14 14:32:39;;;;;;;13.57;3.38;;;;;;;;;;5062403;28;20798;-67
2022/05/14 14:35:08;;;;;;;15.35;3.22;;;;;;;;;;5061403;28;20227;-66
2022/05/14 14:37:38;;;;;;;9.93;3.15;;;;;;;;;;5059795;28;20177;-66
2022/05/14 14:40:04;;;;;;;9.35;2.80;;;;;;;;;;5061671;28;20272;-66
2022/05/14 14:42:29;;;;;;;14.05;3.10;;;;;;;;;;5061596;28;20240;-66
2022/05/14 14:44:54;;;;;;;11.30;3.28;;;;;;;;;;5061376;28;20263;-67
2022/05/14 14:47:20;;;;;;;11.38;3.00;;;;;;;;;;5061969;28;20685;-66
2022/05/14 14:49:45;;;;;;;13.18;2.92;;;;;;;;;;5064544;28;20177;-67
2022/05/14 14:52:11;;;;;;;15.50;3.03;;;;;;;;;;5062649;28;21578;-66
2022/05/14 14:54:36;;;;;;;9.93;2.90;;;;;;;;;;5067209;28;20182;-66
2022/05/14 14:57:02;;;;;;;13.57;3.10;;;;;;;;;;5068571;28;20176;-68
2022/05/14 14:59:27;;;;;;;13.77;3.42;;;;;;;;;;5069004;28;20524;-66
2022/05/14 15:02:03;;;;;;;13.20;3.63;;;;;;;;;;5065647;28;20191;-66
2022/05/14 15:04:41;;;;;;;12.00;3.17;;;;;;;;;;5067706;28;20188;-66
2022/05/14 15:07:15;;;;;;;11.78;2.93;;;;;;;;;;4679936;28;10002902;-66
2022/05/14 15:09:41;;;;;;;13.43;2.88;;;;;;;;;;5063282;28;20236;-66
2022/05/14 15:12:08;;;;;;;13.05;2.90;;;;;;;;;;5063389;28;20222;-66